createdAt,value
2019-03-12T00:00:22.810Z,2.80
2019-03-12T00:02:51.403Z,2.80
2019-03-12T00:05:20.004Z,2.80
2019-03-12T00:07:48.471Z,2.90
2019-03-12T00:10:17.003Z,2.90
2019-03-12T00:12:45.672Z,2.90
2019-03-12T00:15:14.839Z,2.90
2019-03-12T00:17:43.381Z,2.90
2019-03-12T00:20:12.042Z,2.80
2019-03-12T00:22:40.589Z,2.80
2019-03-12T00:25:09.238Z,2.80
2019-03-12T00:27:37.683Z,2.80
2019-03-12T00:30:07.975Z,2.90
2019-03-12T00:32:36.561Z,2.80
2019-03-12T00:35:08.583Z,2.90
2019-03-12T00:37:37.119Z,2.80
2019-03-12T00:40:07.530Z,2.70
2019-03-12T00:42:35.972Z,2.70
2019-03-12T00:45:07.047Z,2.60
2019-03-12T00:47:35.574Z,2.70
2019-03-12T00:50:06.151Z,2.70
2019-03-12T00:52:34.602Z,2.80
2019-03-12T00:55:03.289Z,2.80
2019-03-12T00:57:31.823Z,2.80
2019-03-12T01:00:00.435Z,2.80
2019-03-12T01:02:28.990Z,2.80
2019-03-12T01:04:57.503Z,2.80
2019-03-12T01:07:26.058Z,2.80
2019-03-12T01:09:54.591Z,2.80
2019-03-12T01:12:23.054Z,2.80
2019-03-12T01:14:51.501Z,2.90
2019-03-12T01:17:20.024Z,2.90
2019-03-12T01:19:48.560Z,2.90
2019-03-12T01:22:17.087Z,2.80
2019-03-12T01:24:45.622Z,2.80
2019-03-12T01:27:14.148Z,2.80
2019-03-12T01:29:42.687Z,2.80
2019-03-12T01:32:11.129Z,2.70
2019-03-12T01:34:39.672Z,2.70
2019-03-12T01:37:08.194Z,2.60
2019-03-12T01:39:36.730Z,2.60
2019-03-12T01:42:05.243Z,2.60
2019-03-12T01:44:33.707Z,2.60
2019-03-12T01:47:02.233Z,2.60
2019-03-12T01:49:30.775Z,2.70
2019-03-12T01:51:59.360Z,2.60
2019-03-12T01:54:27.843Z,2.70
2019-03-12T01:56:56.434Z,2.70
2019-03-12T01:59:24.901Z,2.70
2019-03-12T02:01:53.347Z,2.70
2019-03-12T02:04:21.794Z,2.70
2019-03-12T02:06:50.262Z,2.60
2019-03-12T02:09:18.802Z,2.60
2019-03-12T02:11:47.322Z,2.60
2019-03-12T02:14:24.073Z,2.60
2019-03-12T02:16:53.034Z,2.60
2019-03-12T02:19:21.702Z,2.60
2019-03-12T02:21:50.242Z,2.60
2019-03-12T02:24:18.904Z,2.70
2019-03-12T02:26:47.534Z,2.70
2019-03-12T02:29:16.046Z,2.60
2019-03-12T02:31:44.541Z,2.60
2019-03-12T02:34:13.103Z,2.60
2019-03-12T02:36:41.656Z,2.50
2019-03-12T02:39:10.511Z,2.50
2019-03-12T02:41:39.050Z,2.50
2019-03-12T02:44:07.573Z,2.50
2019-03-12T02:46:36.157Z,2.50
2019-03-12T02:49:09.056Z,2.50
2019-03-12T02:51:35.432Z,2.50
2019-03-12T02:54:04.047Z,2.50
2019-03-12T02:56:32.565Z,2.50
2019-03-12T02:59:01.108Z,2.50
2019-03-12T03:01:29.627Z,2.50
2019-03-12T03:03:58.152Z,2.50
2019-03-12T03:06:37.127Z,2.50
2019-03-12T03:09:06.786Z,2.50
2019-03-12T03:11:35.320Z,2.40
2019-03-12T03:14:03.910Z,2.40
2019-03-12T03:16:32.460Z,2.40
2019-03-12T03:19:00.977Z,2.30
2019-03-12T03:21:29.520Z,2.40
2019-03-12T03:23:58.043Z,2.40
2019-03-12T03:26:26.575Z,2.50
2019-03-12T03:28:55.128Z,2.50
2019-03-12T03:31:23.664Z,2.50
2019-03-12T03:33:52.186Z,2.40
2019-03-12T03:36:20.720Z,2.40
2019-03-12T03:38:49.310Z,2.30
2019-03-12T03:41:18.035Z,2.20
2019-03-12T03:43:46.546Z,2.20
2019-03-12T03:46:15.133Z,2.20
2019-03-12T03:48:43.740Z,2.00
2019-03-12T03:51:12.363Z,2.00
2019-03-12T03:53:40.901Z,2.00
2019-03-12T03:56:09.427Z,2.00
2019-03-12T03:58:37.965Z,2.00
2019-03-12T04:01:06.551Z,2.10
2019-03-12T04:03:35.072Z,2.20
2019-03-12T04:06:03.683Z,2.30
2019-03-12T04:08:32.198Z,2.40
2019-03-12T04:11:00.746Z,2.40
2019-03-12T04:13:29.281Z,2.30
2019-03-12T04:15:57.815Z,2.30
2019-03-12T04:18:26.331Z,2.30
2019-03-12T04:20:54.876Z,2.30
2019-03-12T04:23:23.399Z,2.40
2019-03-12T04:25:51.920Z,2.30
2019-03-12T04:28:20.452Z,2.30
2019-03-12T04:30:49.047Z,2.30
2019-03-12T04:33:52.303Z,2.30
2019-03-12T04:36:20.819Z,2.30
2019-03-12T04:38:49.369Z,2.30
2019-03-12T04:41:17.951Z,2.30
2019-03-12T04:43:46.492Z,2.20
2019-03-12T04:46:15.130Z,2.20
2019-03-12T04:48:43.656Z,2.10
2019-03-12T04:51:12.250Z,2.10
2019-03-12T04:53:40.766Z,2.20
2019-03-12T04:56:09.308Z,2.30
2019-03-12T04:58:37.835Z,2.30
2019-03-12T05:01:06.448Z,2.30
2019-03-12T05:03:34.966Z,2.30
2019-03-12T05:06:03.574Z,2.30
2019-03-12T05:08:32.092Z,2.40
2019-03-12T05:11:00.696Z,2.40
2019-03-12T05:13:29.219Z,2.40
2019-03-12T05:15:58.212Z,2.30
2019-03-12T05:18:26.711Z,2.30
2019-03-12T05:20:55.154Z,2.30
2019-03-12T05:23:23.694Z,2.30
2019-03-12T05:25:52.208Z,2.20
2019-03-12T05:28:20.746Z,2.10
2019-03-12T05:30:49.273Z,2.10
2019-03-12T05:33:17.807Z,2.10
2019-03-12T05:35:46.327Z,2.10
2019-03-12T05:38:14.776Z,2.10
2019-03-12T05:40:43.310Z,2.10
2019-03-12T05:43:11.759Z,2.20
2019-03-12T05:45:40.299Z,2.30
2019-03-12T05:48:08.834Z,2.30
2019-03-12T05:50:37.290Z,2.30
2019-03-12T05:53:15.500Z,2.30
2019-03-12T05:55:44.106Z,2.40
2019-03-12T05:58:12.694Z,2.40
2019-03-12T06:00:41.239Z,2.50
2019-03-12T06:03:09.693Z,2.30
2019-03-12T06:05:38.237Z,2.30
2019-03-12T06:08:06.755Z,2.30
2019-03-12T06:10:35.219Z,2.30
2019-03-12T06:13:03.666Z,2.30
2019-03-12T06:15:32.198Z,2.30
2019-03-12T06:18:00.644Z,2.40
2019-03-12T06:20:29.187Z,2.40
2019-03-12T06:22:57.715Z,2.30
2019-03-12T06:25:26.230Z,2.30
2019-03-12T06:27:54.766Z,2.40
2019-03-12T06:30:25.754Z,2.40
2019-03-12T06:32:58.043Z,2.50
2019-03-12T06:35:31.363Z,2.50
2019-03-12T06:38:10.213Z,2.40
2019-03-12T06:40:55.395Z,2.40
2019-03-12T06:43:31.443Z,2.50
2019-03-12T06:46:01.612Z,2.60
2019-03-12T06:48:40.864Z,2.70
2019-03-12T06:51:26.147Z,2.60
2019-03-12T06:54:12.733Z,2.50
2019-03-12T06:56:48.641Z,2.50
2019-03-12T06:59:30.828Z,2.60
2019-03-12T07:02:17.554Z,2.50
2019-03-12T07:04:56.955Z,2.60
2019-03-12T07:07:45.924Z,2.70
2019-03-12T07:10:22.663Z,2.70
2019-03-12T07:12:55.703Z,2.80
2019-03-12T07:15:31.399Z,2.80
2019-03-12T07:18:10.443Z,2.80
2019-03-12T07:20:43.597Z,2.90
2019-03-12T07:23:25.784Z,2.90
2019-03-12T07:25:58.696Z,2.90
2019-03-12T07:28:28.863Z,3.10
2019-03-12T07:31:04.446Z,3.50
2019-03-12T07:33:37.582Z,4.20
2019-03-12T07:36:07.752Z,4.70
2019-03-12T07:38:49.919Z,4.80
2019-03-12T07:41:32.188Z,4.60
2019-03-12T07:44:13.406Z,4.40
2019-03-12T07:46:46.262Z,4.40
2019-03-12T07:49:16.356Z,4.70
2019-03-12T07:52:03.183Z,5.40
2019-03-12T07:54:45.295Z,5.90
2019-03-12T07:57:21.051Z,6.60
2019-03-12T07:59:51.200Z,6.90
2019-03-12T08:02:21.383Z,6.90
2019-03-12T08:04:54.161Z,7.10
2019-03-12T08:07:41.067Z,7.30
2019-03-12T08:10:21.473Z,7.50
2019-03-12T08:13:00.731Z,7.70
2019-03-12T08:15:30.901Z,7.40
2019-03-12T08:18:03.595Z,7.40
2019-03-12T08:20:39.736Z,7.60
2019-03-12T08:23:09.939Z,7.80
2019-03-12T08:25:46.116Z,8.10
2019-03-12T08:28:16.241Z,8.40
2019-03-12T08:30:46.405Z,8.50
2019-03-12T08:33:35.480Z,8.80
2019-03-12T08:36:05.682Z,9.00
2019-03-12T08:38:52.169Z,8.90
2019-03-12T08:41:25.046Z,9.00
2019-03-12T08:43:55.234Z,9.20
2019-03-12T08:46:25.334Z,9.30
2019-03-12T08:48:58.184Z,8.90
2019-03-12T08:51:34.086Z,8.50
2019-03-12T08:54:21.440Z,8.60
2019-03-12T08:57:08.350Z,8.90
2019-03-12T08:59:44.258Z,9.20
2019-03-12T09:02:14.490Z,9.50
2019-03-12T09:04:56.479Z,9.80
2019-03-12T09:07:26.583Z,9.90
2019-03-12T09:09:56.774Z,10.00
2019-03-12T09:12:29.923Z,10.10
2019-03-12T09:15:02.540Z,9.60
2019-03-12T09:17:41.472Z,9.10
2019-03-12T09:20:28.844Z,8.60
2019-03-12T09:23:15.278Z,8.10
2019-03-12T09:25:57.469Z,7.80
2019-03-12T09:28:36.193Z,7.80
2019-03-12T09:31:12.653Z,8.00
2019-03-12T09:33:51.381Z,7.90
2019-03-12T09:36:27.668Z,7.90
2019-03-12T09:39:13.998Z,7.90
2019-03-12T09:42:00.286Z,7.80
2019-03-12T09:44:39.429Z,8.00
2019-03-12T09:47:15.146Z,8.20
2019-03-12T09:49:45.320Z,8.30
2019-03-12T09:52:24.461Z,8.40
2019-03-12T09:54:54.622Z,8.60
2019-03-12T09:57:24.731Z,8.60
2019-03-12T10:00:00.771Z,8.50
2019-03-12T10:02:30.960Z,8.70
2019-03-12T10:05:10.383Z,8.80
2019-03-12T10:07:55.406Z,8.80
2019-03-12T10:10:41.694Z,8.90
2019-03-12T10:13:14.319Z,9.00
2019-03-12T10:15:44.507Z,9.10
2019-03-12T10:18:17.343Z,9.20
2019-03-12T10:20:59.738Z,9.30
2019-03-12T10:23:29.920Z,9.50
2019-03-12T10:26:03.164Z,9.50
2019-03-12T10:28:38.858Z,9.70
2019-03-12T10:31:12.117Z,9.70
2019-03-12T10:33:42.299Z,9.90
2019-03-12T10:36:12.642Z,9.80
2019-03-12T10:39:08.668Z,9.90
2019-03-12T10:41:50.787Z,10.00
2019-03-12T10:44:33.115Z,9.80
2019-03-12T10:47:03.212Z,10.00
2019-03-12T10:49:37.538Z,10.30
2019-03-12T10:52:02.119Z,10.20
2019-03-12T10:54:30.627Z,10.00
2019-03-12T10:56:59.101Z,10.00
2019-03-12T10:59:27.643Z,9.90
2019-03-12T11:01:56.255Z,9.90
2019-03-12T11:04:24.732Z,10.20
2019-03-12T11:06:53.275Z,10.50
2019-03-12T11:09:21.867Z,10.60
2019-03-12T11:11:50.414Z,10.70
2019-03-12T11:14:18.876Z,10.60
2019-03-12T11:16:47.489Z,10.40
2019-03-12T11:19:16.011Z,10.40
2019-03-12T11:21:44.559Z,10.50
2019-03-12T11:24:13.156Z,10.10
2019-03-12T11:26:41.703Z,10.00
2019-03-12T11:29:10.240Z,10.30
2019-03-12T11:31:38.779Z,10.40
2019-03-12T11:34:07.240Z,10.10
2019-03-12T11:36:35.854Z,10.00
2019-03-12T11:39:05.823Z,10.10
2019-03-12T11:41:34.558Z,10.10
2019-03-12T11:44:03.262Z,10.20
2019-03-12T11:46:41.417Z,10.30
2019-03-12T11:49:01.963Z,10.40
2019-03-12T11:51:30.519Z,10.30
2019-03-12T11:53:59.036Z,10.10
2019-03-12T11:56:27.583Z,10.10
2019-03-12T11:58:56.333Z,10.20
2019-03-12T12:01:24.959Z,10.30
2019-03-12T12:03:53.488Z,10.20
2019-03-12T12:06:22.463Z,10.00
2019-03-12T12:08:51.212Z,10.00
2019-03-12T12:11:19.762Z,10.30
2019-03-12T12:13:48.287Z,10.40
2019-03-12T12:16:16.974Z,10.20
2019-03-12T12:18:45.508Z,10.50
2019-03-12T12:21:14.131Z,10.80
2019-03-12T12:23:42.655Z,10.70
2019-03-12T12:26:11.203Z,10.50
2019-03-12T12:28:39.732Z,10.20
2019-03-12T12:31:08.296Z,10.30
2019-03-12T12:33:36.805Z,10.60
2019-03-12T12:36:05.363Z,11.00
2019-03-12T12:38:33.891Z,11.30
2019-03-12T12:41:02.422Z,11.50
2019-03-12T12:43:30.895Z,11.30
2019-03-12T12:45:59.347Z,11.20
2019-03-12T12:48:27.970Z,11.20
2019-03-12T12:51:03.202Z,11.30
2019-03-12T12:53:26.688Z,10.80
2019-03-12T12:55:55.288Z,10.70
2019-03-12T12:58:24.875Z,10.90
2019-03-12T13:00:53.415Z,11.20
2019-03-12T13:03:22.104Z,11.10
2019-03-12T13:05:50.637Z,11.10
2019-03-12T13:08:19.390Z,11.10
2019-03-12T13:10:47.842Z,11.30
2019-03-12T13:13:16.403Z,11.50
2019-03-12T13:15:44.936Z,11.70
2019-03-12T13:18:22.316Z,11.90
2019-03-12T13:20:50.915Z,12.00
2019-03-12T13:23:19.457Z,12.10
2019-03-12T13:25:47.996Z,12.20
2019-03-12T13:28:16.518Z,12.10
2019-03-12T13:30:45.212Z,12.00
2019-03-12T13:33:13.799Z,11.80
2019-03-12T13:35:42.343Z,11.60
2019-03-12T13:38:10.935Z,11.30
2019-03-12T13:40:39.484Z,11.30
2019-03-12T13:43:08.029Z,11.70
2019-03-12T13:45:36.639Z,11.90
2019-03-12T13:48:05.425Z,11.90
2019-03-12T13:50:34.060Z,11.70
2019-03-12T13:53:02.689Z,11.50
2019-03-12T13:55:31.254Z,11.60
2019-03-12T13:57:59.804Z,11.60
2019-03-12T14:00:28.868Z,11.50
2019-03-12T14:02:57.558Z,11.50
2019-03-12T14:05:26.008Z,11.70
2019-03-12T14:07:54.699Z,11.70
2019-03-12T14:10:29.393Z,11.60
2019-03-12T14:12:58.286Z,11.60
2019-03-12T14:15:31.869Z,11.50
2019-03-12T14:18:00.759Z,11.60
2019-03-12T14:20:50.085Z,11.80
2019-03-12T14:23:27.256Z,11.90
2019-03-12T14:25:55.957Z,11.90
2019-03-12T14:28:24.647Z,11.80
2019-03-12T14:30:53.234Z,11.90
2019-03-12T14:33:21.788Z,11.90
2019-03-12T14:35:52.175Z,12.00
2019-03-12T14:38:20.720Z,12.10
2019-03-12T14:40:49.492Z,12.10
2019-03-12T14:43:18.169Z,12.00
2019-03-12T14:45:51.358Z,12.10
2019-03-12T14:48:48.416Z,12.30
2019-03-12T14:51:31.926Z,12.20
2019-03-12T14:54:06.319Z,12.20
2019-03-12T14:56:38.167Z,12.00
2019-03-12T14:59:06.854Z,11.90
2019-03-12T15:01:35.563Z,11.60
2019-03-12T15:04:04.154Z,11.30
2019-03-12T15:06:32.928Z,10.80
2019-03-12T15:09:01.494Z,10.60
2019-03-12T15:11:30.163Z,10.80
2019-03-12T15:13:58.719Z,10.90
2019-03-12T15:16:27.251Z,11.00
2019-03-12T15:18:55.884Z,11.10
2019-03-12T15:21:24.487Z,11.00
2019-03-12T15:23:53.040Z,10.90
2019-03-12T15:26:21.578Z,10.80
2019-03-12T15:28:50.144Z,10.70
2019-03-12T15:31:18.744Z,10.70
2019-03-12T15:33:47.303Z,10.70
2019-03-12T15:36:15.900Z,10.70
2019-03-12T15:38:44.443Z,10.60
2019-03-12T15:41:12.977Z,10.50
2019-03-12T15:43:41.536Z,10.50
2019-03-12T15:46:10.055Z,10.40
2019-03-12T15:48:38.535Z,10.40
2019-03-12T15:51:07.062Z,10.30
2019-03-12T15:53:35.619Z,10.20
2019-03-12T15:56:04.146Z,10.20
2019-03-12T15:58:32.691Z,10.10
2019-03-12T16:01:02.686Z,10.10
2019-03-12T16:03:31.611Z,10.10
2019-03-12T16:06:00.145Z,10.00
2019-03-12T16:08:28.693Z,10.00
2019-03-12T16:10:58.650Z,10.00
2019-03-12T16:13:27.404Z,9.90
2019-03-12T16:15:56.008Z,9.90
2019-03-12T16:18:24.822Z,9.90
2019-03-12T16:20:53.418Z,9.70
2019-03-12T16:23:21.950Z,9.70
2019-03-12T16:25:50.475Z,9.60
2019-03-12T16:28:19.095Z,9.60
2019-03-12T16:30:47.611Z,9.50
2019-03-12T16:33:16.154Z,9.40
2019-03-12T16:35:44.680Z,9.30
2019-03-12T16:38:13.299Z,9.20
2019-03-12T16:40:41.823Z,9.10
2019-03-12T16:43:10.370Z,9.00
2019-03-12T16:45:38.890Z,9.00
2019-03-12T16:48:07.443Z,8.90
2019-03-12T16:50:36.076Z,8.90
2019-03-12T16:53:04.689Z,8.80
2019-03-12T16:55:33.337Z,8.80
2019-03-12T16:58:01.881Z,8.80
2019-03-12T17:00:30.551Z,8.70
2019-03-12T17:02:59.166Z,8.70
2019-03-12T17:05:27.693Z,8.60
2019-03-12T17:07:56.374Z,8.60
2019-03-12T17:10:24.978Z,8.50
2019-03-12T17:12:53.515Z,8.40
2019-03-12T17:15:24.686Z,8.40
2019-03-12T17:17:53.301Z,8.40
2019-03-12T17:20:22.558Z,8.30
2019-03-12T17:22:51.173Z,8.20
2019-03-12T17:25:19.863Z,8.10
2019-03-12T17:27:51.471Z,8.10
2019-03-12T17:30:22.522Z,8.00
2019-03-12T17:32:51.209Z,7.80
2019-03-12T17:35:36.842Z,7.50
2019-03-12T17:38:05.324Z,7.30
2019-03-12T17:40:33.919Z,7.10
2019-03-12T17:43:02.454Z,6.90
2019-03-12T17:45:31.005Z,6.80
2019-03-12T17:47:59.534Z,6.80
2019-03-12T17:50:28.153Z,7.00
2019-03-12T17:52:56.687Z,7.10
2019-03-12T17:55:25.231Z,7.10
2019-03-12T17:57:53.768Z,7.20
2019-03-12T18:00:30.762Z,7.30
2019-03-12T18:02:59.470Z,7.30
2019-03-12T18:05:28.011Z,7.40
2019-03-12T18:07:56.527Z,7.50
2019-03-12T18:10:25.111Z,7.50
2019-03-12T18:12:53.676Z,7.40
2019-03-12T18:15:22.484Z,7.20
2019-03-12T18:17:51.287Z,6.90
2019-03-12T18:20:23.723Z,6.90
2019-03-12T18:22:52.642Z,6.80
2019-03-12T18:25:32.368Z,6.80
2019-03-12T18:28:00.918Z,6.70
2019-03-12T18:30:29.522Z,6.80
2019-03-12T18:32:58.130Z,6.90
2019-03-12T18:35:26.689Z,6.90
2019-03-12T18:37:55.292Z,7.00
2019-03-12T18:40:26.026Z,7.10
2019-03-12T18:42:54.724Z,7.10
2019-03-12T18:45:34.314Z,7.10
2019-03-12T18:48:02.930Z,7.10
2019-03-12T18:50:31.388Z,7.20
2019-03-12T18:52:59.938Z,7.20
2019-03-12T18:55:37.557Z,7.20
2019-03-12T18:58:06.175Z,7.20
2019-03-12T19:00:35.576Z,7.30
2019-03-12T19:03:04.263Z,7.30
2019-03-12T19:05:32.798Z,7.30
2019-03-12T19:08:01.417Z,7.30
2019-03-12T19:10:29.949Z,7.30
2019-03-12T19:12:58.569Z,7.30
2019-03-12T19:15:27.173Z,7.30
2019-03-12T19:17:55.727Z,7.30
2019-03-12T19:20:24.335Z,7.30
2019-03-12T19:22:52.971Z,7.40
2019-03-12T19:25:38.325Z,7.40
2019-03-12T19:28:07.057Z,7.40
2019-03-12T19:30:35.795Z,7.50
2019-03-12T19:33:07.827Z,7.50
2019-03-12T19:35:36.500Z,7.50
2019-03-12T19:38:06.158Z,7.50
2019-03-12T19:40:40.478Z,7.60
2019-03-12T19:43:09.175Z,7.60
2019-03-12T19:45:37.868Z,7.60
2019-03-12T19:48:06.643Z,7.60
2019-03-12T19:50:35.727Z,7.60
2019-03-12T19:53:10.853Z,7.60
2019-03-12T19:55:53.999Z,7.60
2019-03-12T19:58:22.564Z,7.50
2019-03-12T20:00:52.498Z,7.60
2019-03-12T20:03:21.042Z,7.60
2019-03-12T20:05:51.225Z,7.60
2019-03-12T20:08:19.819Z,7.60
2019-03-12T20:11:14.377Z,7.60
2019-03-12T20:13:54.736Z,7.70
2019-03-12T20:16:49.027Z,7.70
2019-03-12T20:19:38.959Z,7.70
2019-03-12T20:22:10.564Z,7.70
2019-03-12T20:25:17.762Z,7.70
2019-03-12T20:28:07.660Z,7.80
2019-03-12T20:30:54.080Z,7.80
2019-03-12T20:33:42.342Z,7.80
2019-03-12T20:36:45.916Z,7.80
2019-03-12T20:39:34.111Z,7.80
2019-03-12T20:42:38.989Z,7.80
2019-03-12T20:45:22.706Z,7.80
2019-03-12T20:48:28.982Z,7.70
2019-03-12T20:51:12.861Z,7.70
2019-03-12T20:54:16.284Z,7.80
2019-03-12T20:57:18.181Z,7.90
2019-03-12T21:00:23.307Z,8.00
2019-03-12T21:03:28.177Z,8.00
2019-03-12T21:06:33.337Z,8.00
2019-03-12T21:09:28.747Z,8.10
2019-03-12T21:12:31.962Z,8.10
2019-03-12T21:15:15.904Z,8.10
2019-03-12T21:18:16.259Z,8.10
2019-03-12T21:21:10.438Z,8.10
2019-03-12T21:23:44.972Z,8.10
2019-03-12T21:26:31.407Z,8.20
2019-03-12T21:29:25.867Z,8.20
2019-03-12T21:31:54.495Z,8.30
2019-03-12T21:34:23.043Z,8.30
2019-03-12T21:36:51.487Z,8.30
2019-03-12T21:39:20.133Z,8.30
2019-03-12T21:41:48.651Z,8.40
2019-03-12T21:44:17.191Z,8.40
2019-03-12T21:46:45.863Z,8.40
2019-03-12T21:49:14.547Z,8.40
2019-03-12T21:51:43.140Z,8.50
2019-03-12T21:54:11.828Z,8.50
2019-03-12T21:56:40.342Z,8.60
2019-03-12T21:59:08.958Z,8.60
2019-03-12T22:01:37.482Z,8.70
2019-03-12T22:04:06.074Z,8.70
2019-03-12T22:06:34.539Z,8.70
2019-03-12T22:09:04.401Z,8.80
2019-03-12T22:11:32.947Z,8.80
2019-03-12T22:14:01.472Z,8.80
2019-03-12T22:16:30.015Z,8.80
2019-03-12T22:18:58.557Z,8.90
2019-03-12T22:21:46.852Z,8.90
2019-03-12T22:24:17.054Z,8.90
2019-03-12T22:26:45.512Z,8.90
2019-03-12T22:29:14.052Z,8.90
2019-03-12T22:31:42.503Z,8.90
2019-03-12T22:34:10.990Z,8.90
2019-03-12T22:36:39.611Z,8.90
2019-03-12T22:39:08.218Z,8.90
2019-03-12T22:41:36.663Z,8.80
2019-03-12T22:44:05.184Z,8.80
2019-03-12T22:46:33.726Z,8.80
2019-03-12T22:49:02.251Z,8.80
2019-03-12T22:51:30.797Z,8.80
2019-03-12T22:53:59.319Z,8.80
2019-03-12T22:56:27.786Z,8.80
2019-03-12T22:58:56.234Z,8.80
2019-03-12T23:01:24.776Z,8.80
2019-03-12T23:03:53.298Z,8.80
2019-03-12T23:06:21.818Z,8.90
2019-03-12T23:08:50.363Z,8.80
2019-03-12T23:11:18.950Z,8.80
2019-03-12T23:13:47.416Z,8.70
2019-03-12T23:16:16.006Z,8.70
2019-03-12T23:18:44.539Z,8.60
2019-03-12T23:21:13.075Z,8.60
2019-03-12T23:23:41.674Z,8.70
2019-03-12T23:26:10.191Z,8.60
2019-03-12T23:28:38.631Z,8.60
2019-03-12T23:31:07.238Z,8.60
2019-03-12T23:33:35.683Z,8.70
2019-03-12T23:36:04.221Z,8.70
2019-03-12T23:38:32.883Z,8.70
2019-03-12T23:41:01.431Z,8.80
2019-03-12T23:43:29.964Z,8.70
2019-03-12T23:45:58.619Z,8.70
2019-03-12T23:48:27.179Z,8.70
2019-03-12T23:50:55.846Z,8.60
2019-03-12T23:53:24.454Z,8.60
2019-03-12T23:55:53.043Z,8.60
2019-03-12T23:58:22.646Z,8.60
